createdAt,value
2019-02-24T00:00:56.978Z,1010.39
2019-02-24T00:01:57.046Z,1010.39
2019-02-24T00:02:56.811Z,1010.44
2019-02-24T00:03:56.727Z,1010.46
2019-02-24T00:04:56.644Z,1010.48
2019-02-24T00:05:56.559Z,1010.44
2019-02-24T00:06:56.475Z,1010.46
2019-02-24T00:07:56.391Z,1010.45
2019-02-24T00:08:56.309Z,1010.44
2019-02-24T00:09:56.225Z,1010.40
2019-02-24T00:10:56.141Z,1010.41
2019-02-24T00:11:56.058Z,1010.41
2019-02-24T00:12:55.974Z,1010.37
2019-02-24T00:13:55.891Z,1010.34
2019-02-24T00:14:55.806Z,1010.34
2019-02-24T00:15:55.722Z,1010.35
2019-02-24T00:16:55.640Z,1010.35
2019-02-24T00:17:55.555Z,1010.33
2019-02-24T00:18:55.473Z,1010.31
2019-02-24T00:19:55.387Z,1010.29
2019-02-24T00:20:55.304Z,1010.28
2019-02-24T00:21:55.220Z,1010.31
2019-02-24T00:22:55.136Z,1010.28
2019-02-24T00:23:55.056Z,1010.21
2019-02-24T00:24:54.971Z,1010.24
2019-02-24T00:25:54.888Z,1010.22
2019-02-24T00:26:54.801Z,1010.18
2019-02-24T00:27:54.717Z,1010.18
2019-02-24T00:28:54.634Z,1010.19
2019-02-24T00:29:54.552Z,1010.18
2019-02-24T00:30:54.466Z,1010.16
2019-02-24T00:31:54.386Z,1010.21
2019-02-24T00:32:54.300Z,1010.15
2019-02-24T00:33:54.218Z,1010.13
2019-02-24T00:34:54.131Z,1010.15
2019-02-24T00:35:54.049Z,1010.09
2019-02-24T00:36:53.966Z,1010.13
2019-02-24T00:37:53.883Z,1010.13
2019-02-24T00:38:53.798Z,1010.12
2019-02-24T00:39:53.713Z,1010.09
2019-02-24T00:40:53.633Z,1010.13
2019-02-24T00:41:53.546Z,1010.10
2019-02-24T00:42:53.462Z,1010.10
2019-02-24T00:43:53.377Z,1010.13
2019-02-24T00:44:53.295Z,1010.18
2019-02-24T00:45:53.212Z,1010.18
2019-02-24T00:46:53.127Z,1010.17
2019-02-24T00:47:53.042Z,1010.18
2019-02-24T00:48:52.960Z,1010.19
2019-02-24T00:49:52.875Z,1010.18
2019-02-24T00:50:52.791Z,1010.21
2019-02-24T00:51:52.706Z,1010.19
2019-02-24T00:52:52.624Z,1010.17
2019-02-24T00:53:52.540Z,1010.16
2019-02-24T00:54:52.455Z,1010.21
2019-02-24T00:55:52.371Z,1010.21
2019-02-24T00:56:52.287Z,1010.23
2019-02-24T00:57:52.204Z,1010.24
2019-02-24T00:58:52.119Z,1010.22
2019-02-24T00:59:52.035Z,1010.21
2019-02-24T01:00:51.950Z,1010.18
2019-02-24T01:01:51.866Z,1010.15
2019-02-24T01:02:51.780Z,1010.15
2019-02-24T01:03:51.697Z,1010.24
2019-02-24T01:04:51.613Z,1010.17
2019-02-24T01:05:51.531Z,1010.19
2019-02-24T01:06:51.446Z,1010.19
2019-02-24T01:07:51.360Z,1010.13
2019-02-24T01:08:51.275Z,1010.16
2019-02-24T01:09:51.192Z,1010.13
2019-02-24T01:10:51.108Z,1010.13
2019-02-24T01:11:51.025Z,1010.07
2019-02-24T01:12:50.939Z,1010.04
2019-02-24T01:13:50.854Z,1010.08
2019-02-24T01:14:50.770Z,1010.07
2019-02-24T01:15:50.687Z,1010.07
2019-02-24T01:16:50.599Z,1010.10
2019-02-24T01:17:50.518Z,1010.16
2019-02-24T01:18:50.432Z,1010.12
2019-02-24T01:19:50.345Z,1010.16
2019-02-24T01:20:50.262Z,1010.15
2019-02-24T01:21:50.177Z,1010.17
2019-02-24T01:22:50.094Z,1010.19
2019-02-24T01:23:50.006Z,1010.14
2019-02-24T01:24:49.922Z,1010.17
2019-02-24T01:25:49.836Z,1010.19
2019-02-24T01:26:49.751Z,1010.19
2019-02-24T01:27:49.667Z,1010.19
2019-02-24T01:28:49.582Z,1010.21
2019-02-24T01:29:49.497Z,1010.19
2019-02-24T01:30:49.413Z,1010.16
2019-02-24T01:31:49.325Z,1010.18
2019-02-24T01:32:49.240Z,1010.19
2019-02-24T01:33:49.157Z,1010.20
2019-02-24T01:34:49.070Z,1010.22
2019-02-24T01:35:48.985Z,1010.20
2019-02-24T01:36:48.902Z,1010.23
2019-02-24T01:37:48.818Z,1010.19
2019-02-24T01:38:48.729Z,1010.20
2019-02-24T01:39:48.644Z,1010.23
2019-02-24T01:40:48.561Z,1010.22
2019-02-24T01:41:48.475Z,1010.27
2019-02-24T01:42:48.394Z,1010.25
2019-02-24T01:43:48.302Z,1010.27
2019-02-24T01:44:48.217Z,1010.24
2019-02-24T01:45:48.132Z,1010.24
2019-02-24T01:46:48.047Z,1010.21
2019-02-24T01:47:47.961Z,1010.24
2019-02-24T01:48:47.876Z,1010.27
2019-02-24T01:49:47.790Z,1010.28
2019-02-24T01:50:47.704Z,1010.31
2019-02-24T01:51:47.618Z,1010.31
2019-02-24T01:52:47.534Z,1010.33
2019-02-24T01:53:47.450Z,1010.31
2019-02-24T01:54:47.361Z,1010.31
2019-02-24T01:55:47.276Z,1010.30
2019-02-24T01:56:47.191Z,1010.29
2019-02-24T01:57:47.105Z,1010.25
2019-02-24T01:58:47.019Z,1010.28
2019-02-24T01:59:46.934Z,1010.27
2019-02-24T02:00:46.849Z,1010.32
2019-02-24T02:01:46.765Z,1010.33
2019-02-24T02:02:46.675Z,1010.31
2019-02-24T02:03:46.592Z,1010.30
2019-02-24T02:04:46.507Z,1010.26
2019-02-24T02:05:46.420Z,1010.26
2019-02-24T02:06:46.333Z,1010.21
2019-02-24T02:07:46.248Z,1010.19
2019-02-24T02:08:46.161Z,1010.18
2019-02-24T02:09:46.078Z,1010.20
2019-02-24T02:10:45.991Z,1010.19
2019-02-24T02:11:45.905Z,1010.15
2019-02-24T02:12:45.819Z,1010.11
2019-02-24T02:13:45.734Z,1010.15
2019-02-24T02:14:45.647Z,1010.18
2019-02-24T02:15:45.562Z,1010.15
2019-02-24T02:16:45.477Z,1010.17
2019-02-24T02:17:45.391Z,1010.21
2019-02-24T02:18:45.304Z,1010.19
2019-02-24T02:19:45.218Z,1010.17
2019-02-24T02:20:45.135Z,1010.18
2019-02-24T02:21:45.049Z,1010.16
2019-02-24T02:22:44.972Z,1010.12
2019-02-24T02:23:44.876Z,1010.12
2019-02-24T02:24:44.791Z,1010.14
2019-02-24T02:25:44.705Z,1010.10
2019-02-24T02:26:44.618Z,1010.12
2019-02-24T02:27:44.534Z,1010.04
2019-02-24T02:28:44.447Z,1010.13
2019-02-24T02:29:44.361Z,1010.11
2019-02-24T02:30:44.274Z,1010.12
2019-02-24T02:31:44.189Z,1010.13
2019-02-24T02:32:44.104Z,1010.09
2019-02-24T02:33:44.017Z,1010.12
2019-02-24T02:34:43.934Z,1010.09
2019-02-24T02:35:43.847Z,1010.07
2019-02-24T02:36:43.859Z,1010.09
2019-02-24T02:37:43.673Z,1010.05
2019-02-24T02:38:43.585Z,1010.09
2019-02-24T02:41:27.154Z,1010.09
2019-02-24T02:42:27.168Z,1010.07
2019-02-24T02:43:26.983Z,1010.10
2019-02-24T02:44:26.912Z,1010.09
2019-02-24T02:45:26.813Z,1010.09
2019-02-24T02:46:26.724Z,1010.06
2019-02-24T02:47:26.640Z,1010.05
2019-02-24T02:48:26.551Z,1010.11
2019-02-24T02:49:26.477Z,1010.08
2019-02-24T02:50:26.379Z,1010.04
2019-02-24T02:51:26.296Z,1010.03
2019-02-24T02:52:26.211Z,1010.01
2019-02-24T02:53:26.123Z,1010.01
2019-02-24T02:54:26.036Z,1010.05
2019-02-24T02:55:25.950Z,1010.04
2019-02-24T02:56:25.862Z,1010.06
2019-02-24T02:57:25.783Z,1010.05
2019-02-24T02:58:25.690Z,1010.08
2019-02-24T02:59:25.614Z,1010.08
2019-02-24T03:00:25.518Z,1010.14
2019-02-24T03:01:25.432Z,1010.10
2019-02-24T03:02:25.348Z,1010.08
2019-02-24T03:03:25.263Z,1010.12
2019-02-24T03:04:25.178Z,1010.12
2019-02-24T03:05:25.088Z,1010.10
2019-02-24T03:06:25.000Z,1010.13
2019-02-24T03:07:24.918Z,1010.15
2019-02-24T03:08:24.834Z,1010.15
2019-02-24T03:09:24.744Z,1010.14
2019-02-24T03:10:24.661Z,1010.15
2019-02-24T03:11:24.571Z,1010.15
2019-02-24T03:12:24.484Z,1010.11
2019-02-24T03:13:24.398Z,1010.11
2019-02-24T03:14:24.313Z,1010.12
2019-02-24T03:15:24.227Z,1010.09
2019-02-24T03:16:24.141Z,1010.14
2019-02-24T03:17:24.054Z,1010.16
2019-02-24T03:18:23.975Z,1010.15
2019-02-24T03:19:23.883Z,1010.16
2019-02-24T03:20:23.795Z,1010.17
2019-02-24T03:21:23.708Z,1010.18
2019-02-24T03:22:23.623Z,1010.20
2019-02-24T03:23:23.537Z,1010.21
2019-02-24T03:24:23.501Z,1010.20
2019-02-24T03:25:23.365Z,1010.20
2019-02-24T03:26:23.279Z,1010.20
2019-02-24T03:27:23.194Z,1010.20
2019-02-24T03:28:23.106Z,1010.19
2019-02-24T03:29:23.021Z,1010.20
2019-02-24T03:30:22.934Z,1010.17
2019-02-24T03:31:22.855Z,1010.16
2019-02-24T03:32:22.761Z,1010.10
2019-02-24T03:33:22.680Z,1010.10
2019-02-24T03:34:22.589Z,1010.07
2019-02-24T03:35:22.502Z,1010.07
2019-02-24T03:36:22.418Z,1010.08
2019-02-24T03:37:22.330Z,1010.09
2019-02-24T03:38:22.245Z,1010.08
2019-02-24T03:39:22.159Z,1010.04
2019-02-24T03:40:22.074Z,1010.05
2019-02-24T03:41:21.993Z,1010.09
2019-02-24T03:42:21.901Z,1010.08
2019-02-24T03:43:21.812Z,1010.05
2019-02-24T03:44:21.726Z,1010.04
2019-02-24T03:45:21.650Z,1010.06
2019-02-24T03:46:21.557Z,1010.06
2019-02-24T03:47:21.469Z,1010.07
2019-02-24T03:48:21.384Z,1010.06
2019-02-24T03:49:21.295Z,1010.04
2019-02-24T03:50:21.210Z,1010.03
2019-02-24T03:51:21.223Z,1010.01
2019-02-24T03:52:21.038Z,1010.01
2019-02-24T03:53:20.952Z,1010.04
2019-02-24T03:54:20.867Z,1009.97
2019-02-24T03:55:20.780Z,1009.96
2019-02-24T03:56:20.694Z,1009.98
2019-02-24T03:57:20.607Z,1009.96
2019-02-24T03:58:20.526Z,1009.93
2019-02-24T03:59:20.435Z,1009.94
2019-02-24T04:00:20.350Z,1009.93
2019-02-24T04:01:20.263Z,1009.93
2019-02-24T04:02:20.177Z,1009.94
2019-02-24T04:03:20.092Z,1009.94
2019-02-24T04:04:20.006Z,1009.93
2019-02-24T04:05:19.920Z,1009.96
2019-02-24T04:06:19.836Z,1009.93
2019-02-24T04:07:19.747Z,1009.93
2019-02-24T04:08:19.660Z,1009.89
2019-02-24T04:09:19.574Z,1009.87
2019-02-24T04:10:19.489Z,1009.86
2019-02-24T04:11:19.404Z,1009.91
2019-02-24T04:12:19.319Z,1009.94
2019-02-24T04:13:19.231Z,1009.92
2019-02-24T04:14:19.145Z,1009.90
2019-02-24T04:15:19.062Z,1009.97
2019-02-24T04:16:18.977Z,1009.92
2019-02-24T04:17:18.897Z,1009.94
2019-02-24T04:18:18.800Z,1009.97
2019-02-24T04:19:18.714Z,1009.97
2019-02-24T04:20:18.628Z,1010.00
2019-02-24T04:21:18.546Z,1010.00
2019-02-24T04:22:18.463Z,1009.95
2019-02-24T04:23:18.371Z,1009.98
2019-02-24T04:24:18.283Z,1009.97
2019-02-24T04:25:18.207Z,1009.95
2019-02-24T04:26:18.115Z,1009.99
2019-02-24T04:27:18.026Z,1009.95
2019-02-24T04:28:17.943Z,1009.96
2019-02-24T04:29:24.500Z,1009.92
2019-02-24T04:30:17.781Z,1009.92
2019-02-24T04:31:17.682Z,1009.91
2019-02-24T04:32:17.595Z,1009.89
2019-02-24T04:33:17.510Z,1009.89
2019-02-24T04:34:17.424Z,1009.93
2019-02-24T04:35:17.343Z,1009.94
2019-02-24T04:36:17.249Z,1009.92
2019-02-24T04:37:17.212Z,1009.91
2019-02-24T04:38:17.079Z,1009.91
2019-02-24T04:39:16.993Z,1009.93
2019-02-24T04:40:16.905Z,1009.92
2019-02-24T04:41:16.818Z,1009.89
2019-02-24T04:42:16.739Z,1009.93
2019-02-24T04:43:16.647Z,1009.96
2019-02-24T04:44:16.571Z,1009.96
2019-02-24T04:45:16.474Z,1009.96
2019-02-24T04:46:16.388Z,1009.92
2019-02-24T04:47:16.302Z,1009.89
2019-02-24T04:48:16.214Z,1009.91
2019-02-24T04:49:16.128Z,1009.95
2019-02-24T04:50:16.043Z,1009.90
2019-02-24T04:51:15.958Z,1009.90
2019-02-24T04:52:15.869Z,1009.91
2019-02-24T04:53:15.783Z,1009.92
2019-02-24T04:54:15.697Z,1009.88
2019-02-24T04:55:15.610Z,1009.88
2019-02-24T04:56:15.523Z,1009.92
2019-02-24T04:57:15.439Z,1009.93
2019-02-24T04:58:15.352Z,1009.93
2019-02-24T04:59:15.266Z,1009.95
2019-02-24T05:00:15.180Z,1009.93
2019-02-24T05:01:15.093Z,1009.89
2019-02-24T05:02:15.007Z,1009.91
2019-02-24T05:03:14.979Z,1009.93
2019-02-24T05:04:14.938Z,1009.91
2019-02-24T05:05:14.747Z,1009.90
2019-02-24T05:06:14.661Z,1009.88
2019-02-24T05:07:14.574Z,1009.93
2019-02-24T05:08:14.487Z,1009.90
2019-02-24T05:09:14.402Z,1009.86
2019-02-24T05:10:14.315Z,1009.92
2019-02-24T05:11:14.230Z,1009.93
2019-02-24T05:12:14.141Z,1009.88
2019-02-24T05:13:14.056Z,1009.86
2019-02-24T05:14:13.968Z,1009.83
2019-02-24T05:15:13.883Z,1009.85
2019-02-24T05:16:13.797Z,1009.83
2019-02-24T05:17:13.710Z,1009.80
2019-02-24T05:18:13.624Z,1009.79
2019-02-24T05:19:13.540Z,1009.80
2019-02-24T05:20:13.455Z,1009.80
2019-02-24T05:21:13.365Z,1009.80
2019-02-24T05:22:13.277Z,1009.80
2019-02-24T05:23:13.193Z,1009.83
2019-02-24T05:24:13.105Z,1009.80
2019-02-24T05:25:13.019Z,1009.83
2019-02-24T05:26:12.942Z,1009.83
2019-02-24T05:27:12.846Z,1009.86
2019-02-24T05:28:12.761Z,1009.84
2019-02-24T05:29:12.679Z,1009.85
2019-02-24T05:30:12.586Z,1009.93
2019-02-24T05:31:12.502Z,1009.95
2019-02-24T05:32:12.414Z,1009.97
2019-02-24T05:33:12.327Z,1009.99
2019-02-24T05:34:12.242Z,1009.97
2019-02-24T05:35:12.155Z,1009.98
2019-02-24T05:36:12.072Z,1009.99
2019-02-24T05:37:11.982Z,1009.97
2019-02-24T05:38:11.896Z,1009.99
2019-02-24T05:39:11.809Z,1010.00
2019-02-24T05:40:11.728Z,1010.05
2019-02-24T05:41:11.747Z,1010.06
2019-02-24T05:42:11.553Z,1010.08
2019-02-24T05:43:11.464Z,1010.09
2019-02-24T05:44:11.378Z,1010.12
2019-02-24T05:45:11.290Z,1010.15
2019-02-24T05:46:11.205Z,1010.17
2019-02-24T05:47:11.119Z,1010.17
2019-02-24T05:48:11.040Z,1010.14
2019-02-24T05:49:10.948Z,1010.12
2019-02-24T05:50:10.876Z,1010.06
2019-02-24T05:51:10.777Z,1010.08
2019-02-24T05:52:10.687Z,1010.10
2019-02-24T05:53:10.600Z,1010.12
2019-02-24T05:54:10.517Z,1010.10
2019-02-24T05:55:10.428Z,1010.12
2019-02-24T05:56:10.343Z,1010.13
2019-02-24T05:57:10.255Z,1010.13
2019-02-24T05:58:10.168Z,1010.15
2019-02-24T05:59:10.082Z,1010.15
2019-02-24T06:00:09.995Z,1010.24
2019-02-24T06:01:09.907Z,1010.21
2019-02-24T06:02:09.832Z,1010.28
2019-02-24T06:03:09.746Z,1010.31
2019-02-24T06:04:09.648Z,1010.29
2019-02-24T06:05:09.563Z,1010.30
2019-02-24T06:06:09.485Z,1010.29
2019-02-24T06:07:09.389Z,1010.26
2019-02-24T06:08:09.302Z,1010.24
2019-02-24T06:09:09.215Z,1010.26
2019-02-24T06:10:09.134Z,1010.25
2019-02-24T06:11:09.044Z,1010.23
2019-02-24T06:12:08.956Z,1010.21
2019-02-24T06:13:08.870Z,1010.20
2019-02-24T06:14:08.784Z,1010.19
2019-02-24T06:15:08.701Z,1010.18
2019-02-24T06:16:08.615Z,1010.19
2019-02-24T06:17:08.625Z,1010.20
2019-02-24T06:18:08.437Z,1010.20
2019-02-24T06:19:08.351Z,1010.20
2019-02-24T06:20:08.264Z,1010.20
2019-02-24T06:21:08.179Z,1010.20
2019-02-24T06:22:08.092Z,1010.22
2019-02-24T06:23:08.004Z,1010.16
2019-02-24T06:24:07.920Z,1010.15
2019-02-24T06:25:07.834Z,1010.16
2019-02-24T06:26:07.746Z,1010.13
2019-02-24T06:27:07.660Z,1010.17
2019-02-24T06:28:07.572Z,1010.13
2019-02-24T06:29:07.486Z,1010.12
2019-02-24T06:30:07.403Z,1010.12
2019-02-24T06:31:07.314Z,1010.11
2019-02-24T06:32:07.228Z,1010.08
2019-02-24T06:33:07.144Z,1010.04
2019-02-24T06:34:07.054Z,1010.08
2019-02-24T06:35:06.969Z,1010.08
2019-02-24T06:36:06.884Z,1010.10
2019-02-24T06:37:06.800Z,1010.13
2019-02-24T06:38:06.711Z,1010.16
2019-02-24T06:39:06.622Z,1010.17
2019-02-24T06:40:06.543Z,1010.18
2019-02-24T06:41:06.449Z,1010.20
2019-02-24T06:42:06.364Z,1010.20
2019-02-24T06:43:06.278Z,1010.22
2019-02-24T06:44:06.195Z,1010.24
2019-02-24T06:45:06.108Z,1010.27
2019-02-24T06:46:06.024Z,1010.26
2019-02-24T06:47:05.934Z,1010.25
2019-02-24T06:48:05.851Z,1010.28
2019-02-24T06:49:05.761Z,1010.25
2019-02-24T06:50:05.682Z,1010.30
2019-02-24T06:51:05.591Z,1010.30
2019-02-24T06:52:05.557Z,1010.24
2019-02-24T06:53:05.416Z,1010.29
2019-02-24T06:54:05.330Z,1010.25
2019-02-24T06:55:05.244Z,1010.25
2019-02-24T06:56:05.157Z,1010.25
2019-02-24T06:57:05.072Z,1010.21
2019-02-24T06:58:04.988Z,1010.21
2019-02-24T06:59:04.900Z,1010.25
2019-02-24T07:00:13.590Z,1010.24
2019-02-24T07:01:04.728Z,1010.22
2019-02-24T07:02:04.642Z,1010.21
2019-02-24T07:03:04.655Z,1010.23
2019-02-24T07:04:04.471Z,1010.21
2019-02-24T07:05:04.382Z,1010.17
2019-02-24T07:06:04.296Z,1010.13
2019-02-24T07:07:04.212Z,1010.10
2019-02-24T07:08:04.125Z,1010.11
2019-02-24T07:09:04.038Z,1010.18
2019-02-24T07:10:03.953Z,1010.15
2019-02-24T07:11:03.874Z,1010.20
2019-02-24T07:12:03.781Z,1010.16
2019-02-24T07:13:03.696Z,1010.18
2019-02-24T07:14:03.659Z,1010.15
2019-02-24T07:15:03.524Z,1010.19
2019-02-24T07:16:03.445Z,1010.13
2019-02-24T07:17:03.355Z,1010.18
2019-02-24T07:18:03.266Z,1010.18
2019-02-24T07:19:03.180Z,1010.17
2019-02-24T07:20:03.093Z,1010.21
2019-02-24T07:21:03.008Z,1010.20
2019-02-24T07:22:02.923Z,1010.21
2019-02-24T07:23:02.838Z,1010.23
2019-02-24T07:24:02.851Z,1010.24
2019-02-24T07:25:02.665Z,1010.19
2019-02-24T07:26:02.581Z,1010.17
2019-02-24T07:27:02.493Z,1010.13
2019-02-24T07:28:02.407Z,1010.15
2019-02-24T07:29:02.323Z,1010.15
2019-02-24T07:30:02.237Z,1010.16
2019-02-24T07:31:02.150Z,1010.17
2019-02-24T07:32:02.066Z,1010.17
2019-02-24T07:33:01.979Z,1010.18
2019-02-24T07:34:01.896Z,1010.10
2019-02-24T07:35:01.810Z,1010.15
2019-02-24T07:36:01.723Z,1010.15
2019-02-24T07:37:01.668Z,1010.21
2019-02-24T07:38:01.554Z,1010.19
2019-02-24T07:39:01.467Z,1010.22
2019-02-24T07:40:01.382Z,1010.21
2019-02-24T07:41:01.295Z,1010.22
2019-02-24T07:42:01.211Z,1010.22
2019-02-24T07:43:01.124Z,1010.23
2019-02-24T07:44:01.040Z,1010.20
2019-02-24T07:45:00.956Z,1010.14
2019-02-24T07:46:00.871Z,1010.11
2019-02-24T07:47:00.784Z,1010.11
2019-02-24T07:48:00.700Z,1010.09
2019-02-24T07:49:00.612Z,1010.11
2019-02-24T07:50:00.529Z,1010.07
2019-02-24T07:51:00.444Z,1010.05
2019-02-24T07:52:00.357Z,1010.08
2019-02-24T07:53:00.274Z,1010.10
2019-02-24T07:54:00.189Z,1010.08
2019-02-24T07:55:00.113Z,1010.13
2019-02-24T07:56:00.021Z,1010.15
2019-02-24T07:56:59.935Z,1010.12
2019-02-24T07:57:59.849Z,1010.17
2019-02-24T07:58:59.765Z,1010.17
2019-02-24T07:59:59.679Z,1010.16
2019-02-24T08:00:59.594Z,1010.12
2019-02-24T08:01:59.516Z,1010.12
2019-02-24T08:02:59.428Z,1010.13
2019-02-24T08:03:59.342Z,1010.08
2019-02-24T08:04:59.259Z,1010.12
2019-02-24T08:05:59.178Z,1010.12
2019-02-24T08:06:59.091Z,1010.09
2019-02-24T08:07:59.006Z,1010.11
2019-02-24T08:08:58.922Z,1010.12
2019-02-24T08:09:58.838Z,1010.12
2019-02-24T08:10:58.756Z,1010.15
2019-02-24T08:11:58.671Z,1010.18
2019-02-24T08:12:58.585Z,1010.22
2019-02-24T08:13:58.503Z,1010.26
2019-02-24T08:14:58.420Z,1010.27
2019-02-24T08:15:58.335Z,1010.31
2019-02-24T08:16:58.252Z,1010.31
2019-02-24T08:17:58.166Z,1010.33
2019-02-24T08:18:58.084Z,1010.38
2019-02-24T08:19:58.004Z,1010.36
2019-02-24T08:20:57.999Z,1010.36
2019-02-24T08:21:57.835Z,1010.37
2019-02-24T08:22:57.750Z,1010.40
2019-02-24T08:23:57.667Z,1010.33
2019-02-24T08:24:57.587Z,1010.34
2019-02-24T08:25:57.501Z,1010.33
2019-02-24T08:26:57.418Z,1010.30
2019-02-24T08:27:57.337Z,1010.30
2019-02-24T08:28:57.253Z,1010.24
2019-02-24T08:29:57.173Z,1010.29
2019-02-24T08:30:57.088Z,1010.33
2019-02-24T08:31:57.004Z,1010.30
2019-02-24T08:32:56.924Z,1010.27
2019-02-24T08:33:56.840Z,1010.25
2019-02-24T08:34:56.757Z,1010.27
2019-02-24T08:35:56.675Z,1010.24
2019-02-24T08:36:56.592Z,1010.28
2019-02-24T08:37:56.510Z,1010.27
2019-02-24T08:38:56.429Z,1010.24
2019-02-24T08:39:56.346Z,1010.26
2019-02-24T08:40:56.264Z,1010.25
2019-02-24T08:41:56.182Z,1010.23
2019-02-24T08:42:56.099Z,1010.27
2019-02-24T08:43:56.016Z,1010.24
2019-02-24T08:44:55.936Z,1010.24
2019-02-24T08:45:55.853Z,1010.24
2019-02-24T08:46:55.772Z,1010.25
2019-02-24T08:47:55.690Z,1010.27
2019-02-24T08:48:55.608Z,1010.28
2019-02-24T08:49:55.527Z,1010.22
2019-02-24T08:50:55.444Z,1010.27
2019-02-24T08:51:55.363Z,1010.27
2019-02-24T08:52:55.281Z,1010.31
2019-02-24T08:53:55.201Z,1010.34
2019-02-24T08:54:55.118Z,1010.35
2019-02-24T08:55:55.037Z,1010.35
2019-02-24T08:56:55.711Z,1010.36
2019-02-24T08:57:54.877Z,1010.34
2019-02-24T08:58:54.794Z,1010.34
2019-02-24T08:59:54.715Z,1010.34
2019-02-24T09:00:54.631Z,1010.36
2019-02-24T09:01:54.550Z,1010.35
2019-02-24T09:02:54.469Z,1010.36
2019-02-24T09:03:54.388Z,1010.34
2019-02-24T09:04:54.309Z,1010.35
2019-02-24T09:05:54.225Z,1010.36
2019-02-24T09:06:54.148Z,1010.38
2019-02-24T09:07:54.064Z,1010.35
2019-02-24T09:08:53.985Z,1010.35
2019-02-24T09:09:53.905Z,1010.40
2019-02-24T09:10:53.823Z,1010.36
2019-02-24T09:11:53.742Z,1010.36
2019-02-24T09:12:53.661Z,1010.36
2019-02-24T09:13:53.583Z,1010.36
2019-02-24T09:14:53.502Z,1010.39
2019-02-24T09:15:53.527Z,1010.39
2019-02-24T09:16:53.340Z,1010.40
2019-02-24T09:17:53.264Z,1010.38
2019-02-24T09:18:53.198Z,1010.42
2019-02-24T09:19:53.097Z,1010.43
2019-02-24T09:20:53.018Z,1010.44
2019-02-24T09:21:52.937Z,1010.47
2019-02-24T09:22:52.861Z,1010.50
2019-02-24T09:23:52.831Z,1010.52
2019-02-24T09:24:52.697Z,1010.56
2019-02-24T09:25:52.617Z,1010.58
2019-02-24T09:26:52.536Z,1010.56
2019-02-24T09:27:52.456Z,1010.58
2019-02-24T09:28:52.376Z,1010.60
2019-02-24T09:29:52.298Z,1010.58
2019-02-24T09:31:00.421Z,1010.61
2019-02-24T09:31:52.136Z,1010.64
2019-02-24T09:32:52.055Z,1010.67
2019-02-24T09:33:51.978Z,1010.67
2019-02-24T09:34:51.897Z,1010.69
2019-02-24T09:35:51.903Z,1010.71
2019-02-24T09:36:51.737Z,1010.73
2019-02-24T09:37:51.658Z,1010.72
2019-02-24T09:38:51.579Z,1010.72
2019-02-24T09:39:51.497Z,1010.72
2019-02-24T09:40:51.416Z,1010.73
2019-02-24T09:41:51.339Z,1010.74
2019-02-24T09:42:51.259Z,1010.71
2019-02-24T09:43:51.178Z,1010.75
2019-02-24T09:44:51.098Z,1010.73
2019-02-24T09:45:51.021Z,1010.69
2019-02-24T09:46:50.943Z,1010.72
2019-02-24T09:47:50.860Z,1010.68
2019-02-24T09:48:50.785Z,1010.68
2019-02-24T09:49:50.703Z,1010.68
2019-02-24T09:50:50.624Z,1010.68
2019-02-24T09:51:52.317Z,1010.64
2019-02-24T09:52:50.464Z,1010.69
2019-02-24T09:53:50.384Z,1010.68
2019-02-24T09:54:50.305Z,1010.68
2019-02-24T09:55:50.227Z,1010.70
2019-02-24T09:56:50.147Z,1010.65
2019-02-24T09:57:50.070Z,1010.56
2019-02-24T09:58:49.991Z,1010.60
2019-02-24T09:59:49.912Z,1010.61
2019-02-24T10:00:49.834Z,1010.61
2019-02-24T10:01:49.757Z,1010.55
2019-02-24T10:02:49.679Z,1010.58
2019-02-24T10:03:49.598Z,1010.59
2019-02-24T10:04:49.519Z,1010.64
2019-02-24T10:05:49.446Z,1010.63
2019-02-24T10:06:49.365Z,1010.67
2019-02-24T10:07:49.287Z,1010.67
2019-02-24T10:08:49.209Z,1010.67
2019-02-24T10:09:49.133Z,1010.74
2019-02-24T10:10:49.054Z,1010.74
2019-02-24T10:11:48.977Z,1010.74
2019-02-24T10:12:48.899Z,1010.77
2019-02-24T10:13:51.104Z,1010.76
2019-02-24T10:14:48.748Z,1010.76
2019-02-24T10:15:48.669Z,1010.80
2019-02-24T10:16:48.594Z,1010.78
2019-02-24T10:17:48.517Z,1010.78
2019-02-24T10:18:48.442Z,1010.78
2019-02-24T10:19:48.365Z,1010.78
2019-02-24T10:20:48.290Z,1010.77
2019-02-24T10:21:48.215Z,1010.76
2019-02-24T10:22:48.138Z,1010.71
2019-02-24T10:23:48.063Z,1010.74
2019-02-24T10:24:47.990Z,1010.79
2019-02-24T10:25:47.913Z,1010.72
2019-02-24T10:26:47.841Z,1010.75
2019-02-24T10:27:47.762Z,1010.75
2019-02-24T10:28:47.902Z,1010.74
2019-02-24T10:29:47.615Z,1010.72
2019-02-24T10:30:47.539Z,1010.76
2019-02-24T10:31:47.465Z,1010.77
2019-02-24T10:32:47.389Z,1010.77
2019-02-24T10:33:47.314Z,1010.77
2019-02-24T10:34:47.238Z,1010.76
2019-02-24T10:35:47.164Z,1010.80
2019-02-24T10:36:47.088Z,1010.76
2019-02-24T10:37:47.027Z,1010.82
2019-02-24T10:38:46.940Z,1010.82
2019-02-24T10:39:46.865Z,1010.83
2019-02-24T10:40:46.793Z,1010.83
2019-02-24T10:41:46.717Z,1010.83
2019-02-24T10:42:46.641Z,1010.88
2019-02-24T10:43:46.567Z,1010.90
2019-02-24T10:44:46.490Z,1010.92
2019-02-24T10:45:46.416Z,1010.89
2019-02-24T10:46:46.341Z,1010.91
2019-02-24T10:47:46.265Z,1010.89
2019-02-24T10:48:46.191Z,1010.85
2019-02-24T10:49:46.114Z,1010.93
2019-02-24T10:50:46.040Z,1010.93
2019-02-24T10:51:45.964Z,1010.95
2019-02-24T10:52:45.893Z,1010.94
2019-02-24T10:53:45.818Z,1010.97
2019-02-24T10:54:45.740Z,1010.99
2019-02-24T10:55:45.664Z,1010.98
2019-02-24T10:56:45.592Z,1011.02
2019-02-24T10:57:45.516Z,1011.04
2019-02-24T10:58:45.441Z,1011.00
2019-02-24T10:59:45.366Z,1011.02
2019-02-24T11:00:45.293Z,1010.99
2019-02-24T11:01:45.230Z,1010.98
2019-02-24T11:02:45.144Z,1010.93
2019-02-24T11:03:45.071Z,1010.88
2019-02-24T11:04:45.004Z,1010.95
2019-02-24T11:05:45.024Z,1010.92
2019-02-24T11:06:44.850Z,1010.89
2019-02-24T11:07:44.781Z,1010.90
2019-02-24T11:08:44.702Z,1010.90
2019-02-24T11:09:44.630Z,1010.91
2019-02-24T11:10:44.557Z,1010.91
2019-02-24T11:11:44.489Z,1010.95
2019-02-24T11:12:44.409Z,1010.92
2019-02-24T11:13:44.337Z,1010.90
2019-02-24T11:14:44.264Z,1010.94
2019-02-24T11:15:44.190Z,1010.94
2019-02-24T11:16:44.116Z,1010.91
2019-02-24T11:17:44.044Z,1010.90
2019-02-24T11:18:43.972Z,1010.92
2019-02-24T11:19:43.897Z,1010.94
2019-02-24T11:20:43.825Z,1010.92
2019-02-24T11:21:43.752Z,1010.96
2019-02-24T11:22:43.680Z,1010.95
2019-02-24T11:23:43.606Z,1010.95
2019-02-24T11:24:43.534Z,1010.99
2019-02-24T11:25:43.462Z,1010.97
2019-02-24T11:26:43.390Z,1011.04
2019-02-24T11:27:43.316Z,1011.00
2019-02-24T11:28:43.244Z,1010.98
2019-02-24T11:29:43.173Z,1010.96
2019-02-24T11:30:43.101Z,1010.90
2019-02-24T11:31:43.031Z,1010.93
2019-02-24T11:32:42.958Z,1011.00
2019-02-24T11:33:42.885Z,1011.09
2019-02-24T11:34:42.812Z,1011.12
2019-02-24T11:35:42.743Z,1011.09
2019-02-24T11:36:42.668Z,1011.08
2019-02-24T11:37:42.598Z,1011.09
2019-02-24T11:38:42.527Z,1011.13
2019-02-24T11:39:42.454Z,1011.14
2019-02-24T11:40:42.379Z,1011.18
2019-02-24T11:41:42.309Z,1011.11
2019-02-24T11:42:42.237Z,1011.15
2019-02-24T11:43:42.165Z,1011.12
2019-02-24T11:44:42.094Z,1011.13
2019-02-24T11:45:42.022Z,1011.06
2019-02-24T11:46:41.952Z,1011.15
2019-02-24T11:47:41.880Z,1011.15
2019-02-24T11:48:41.810Z,1011.14
2019-02-24T11:49:41.740Z,1011.05
2019-02-24T11:50:41.669Z,1011.06
2019-02-24T11:51:41.603Z,1011.05
2019-02-24T11:52:41.530Z,1011.07
2019-02-24T11:53:41.458Z,1011.10
2019-02-24T11:54:41.389Z,1011.04
2019-02-24T11:55:41.320Z,1011.05
2019-02-24T11:56:41.250Z,1011.09
2019-02-24T11:57:41.181Z,1011.11
2019-02-24T11:58:41.112Z,1011.09
2019-02-24T11:59:41.043Z,1011.11
2019-02-24T12:00:40.977Z,1011.15
2019-02-24T12:01:47.228Z,1011.15
2019-02-24T12:02:41.818Z,1011.14
2019-02-24T12:03:40.775Z,1011.15
2019-02-24T12:04:40.707Z,1011.15
2019-02-24T12:05:40.640Z,1011.14
2019-02-24T12:06:40.573Z,1011.22